sensor_id;sensor_type;location;lat;lon;timestamp;temperature;humidity
7204;DHT22;3643;52.460;13.322;2023-02-26T00:01:44;-0.60;99.90
7204;DHT22;3643;52.460;13.322;2023-02-26T00:04:13;-0.60;99.90
7204;DHT22;3643;52.460;13.322;2023-02-26T00:06:42;-0.20;99.90
7204;DHT22;3643;52.460;13.322;2023-02-26T00:09:24;-0.60;99.90
7204;DHT22;3643;52.460;13.322;2023-02-26T00:11:53;-0.70;99.90
7204;DHT22;3643;52.460;13.322;2023-02-26T00:14:22;-0.70;99.90
7204;DHT22;3643;52.460;13.322;2023-02-26T00:16:57;-0.70;99.90
7204;DHT22;3643;52.460;13.322;2023-02-26T00:19:33;-0.70;99.90
7204;DHT22;3643;52.460;13.322;2023-02-26T00:22:02;-0.70;99.90
7204;DHT22;3643;52.460;13.322;2023-02-26T00:24:32;-0.70;99.90
7204;DHT22;3643;52.460;13.322;2023-02-26T00:27:00;-0.80;99.90
7204;DHT22;3643;52.460;13.322;2023-02-26T00:29:29;-0.80;99.90
7204;DHT22;3643;52.460;13.322;2023-02-26T00:31:58;-0.80;99.90
7204;DHT22;3643;52.460;13.322;2023-02-26T00:34:28;-0.80;99.90
7204;DHT22;3643;52.460;13.322;2023-02-26T00:37:06;-0.80;99.90
7204;DHT22;3643;52.460;13.322;2023-02-26T00:39:45;-0.80;99.90
7204;DHT22;3643;52.460;13.322;2023-02-26T00:42:16;-0.40;99.90
7204;DHT22;3643;52.460;13.322;2023-02-26T00:44:45;-0.70;99.90
7204;DHT22;3643;52.460;13.322;2023-02-26T00:47:19;-0.70;99.90
7204;DHT22;3643;52.460;13.322;2023-02-26T00:50:04;-0.70;99.90
7204;DHT22;3643;52.460;13.322;2023-02-26T00:52:43;-0.60;99.90
7204;DHT22;3643;52.460;13.322;2023-02-26T00:55:14;-0.70;99.90
7204;DHT22;3643;52.460;13.322;2023-02-26T00:57:43;-0.70;99.90
7204;DHT22;3643;52.460;13.322;2023-02-26T01:00:13;-0.60;99.90
7204;DHT22;3643;52.460;13.322;2023-02-26T01:02:42;-0.70;99.90
7204;DHT22;3643;52.460;13.322;2023-02-26T01:05:12;-0.60;99.90
7204;DHT22;3643;52.460;13.322;2023-02-26T01:07:43;-0.60;99.90
7204;DHT22;3643;52.460;13.322;2023-02-26T01:10:14;-0.50;99.90
7204;DHT22;3643;52.460;13.322;2023-02-26T01:12:43;-0.50;99.90
7204;DHT22;3643;52.460;13.322;2023-02-26T01:15:12;-0.40;99.90
7204;DHT22;3643;52.460;13.322;2023-02-26T01:17:47;-0.40;99.90
7204;DHT22;3643;52.460;13.322;2023-02-26T01:20:19;-0.40;99.90
7204;DHT22;3643;52.460;13.322;2023-02-26T01:22:51;-0.40;99.90
7204;DHT22;3643;52.460;13.322;2023-02-26T01:25:27;-0.40;99.90
7204;DHT22;3643;52.460;13.322;2023-02-26T01:27:56;-0.40;99.90
7204;DHT22;3643;52.460;13.322;2023-02-26T01:30:25;-0.40;99.90
7204;DHT22;3643;52.460;13.322;2023-02-26T01:32:59;-0.30;99.90
7204;DHT22;3643;52.460;13.322;2023-02-26T01:35:41;-0.30;99.90
7204;DHT22;3643;52.460;13.322;2023-02-26T01:38:17;-0.30;99.90
7204;DHT22;3643;52.460;13.322;2023-02-26T01:41:15;-0.30;99.90
7204;DHT22;3643;52.460;13.322;2023-02-26T01:43:50;-0.30;99.90
7204;DHT22;3643;52.460;13.322;2023-02-26T01:46:27;-0.30;99.90
7204;DHT22;3643;52.460;13.322;2023-02-26T01:48:59;-0.30;99.90
7204;DHT22;3643;52.460;13.322;2023-02-26T01:51:48;-0.30;99.90
7204;DHT22;3643;52.460;13.322;2023-02-26T01:54:20;-0.30;99.90
7204;DHT22;3643;52.460;13.322;2023-02-26T01:56:52;-0.20;99.90
7204;DHT22;3643;52.460;13.322;2023-02-26T01:59:22;-0.20;99.90
7204;DHT22;3643;52.460;13.322;2023-02-26T02:01:52;-0.20;99.90
7204;DHT22;3643;52.460;13.322;2023-02-26T02:04:25;-0.20;99.90
7204;DHT22;3643;52.460;13.322;2023-02-26T02:06:54;-0.30;99.90
7204;DHT22;3643;52.460;13.322;2023-02-26T02:09:22;-0.30;99.90
7204;DHT22;3643;52.460;13.322;2023-02-26T02:12:09;-0.30;99.90
7204;DHT22;3643;52.460;13.322;2023-02-26T02:14:52;-0.30;99.90
7204;DHT22;3643;52.460;13.322;2023-02-26T02:17:30;-0.30;99.90
7204;DHT22;3643;52.460;13.322;2023-02-26T02:23:28;-0.30;99.90
7204;DHT22;3643;52.460;13.322;2023-02-26T02:26:33;-0.30;99.90
7204;DHT22;3643;52.460;13.322;2023-02-26T02:32:14;-0.20;99.90
7204;DHT22;3643;52.460;13.322;2023-02-26T02:34:50;-0.20;99.90
7204;DHT22;3643;52.460;13.322;2023-02-26T02:37:21;-0.20;99.90
7204;DHT22;3643;52.460;13.322;2023-02-26T02:39:54;-0.20;99.90
7204;DHT22;3643;52.460;13.322;2023-02-26T02:42:28;-0.20;99.90
7204;DHT22;3643;52.460;13.322;2023-02-26T02:45:02;-0.20;99.90
7204;DHT22;3643;52.460;13.322;2023-02-26T02:47:35;-0.30;99.90
7204;DHT22;3643;52.460;13.322;2023-02-26T02:50:09;-0.20;99.90
7204;DHT22;3643;52.460;13.322;2023-02-26T02:52:43;-0.20;99.90
7204;DHT22;3643;52.460;13.322;2023-02-26T02:55:16;-0.20;99.90
7204;DHT22;3643;52.460;13.322;2023-02-26T02:57:49;-0.20;99.90
7204;DHT22;3643;52.460;13.322;2023-02-26T03:00:21;-0.20;99.90
7204;DHT22;3643;52.460;13.322;2023-02-26T03:02:58;-0.20;99.90
7204;DHT22;3643;52.460;13.322;2023-02-26T03:05:28;-0.20;99.90
7204;DHT22;3643;52.460;13.322;2023-02-26T03:08:00;-0.20;99.90
7204;DHT22;3643;52.460;13.322;2023-02-26T03:10:30;-0.20;99.90
7204;DHT22;3643;52.460;13.322;2023-02-26T03:12:59;-0.20;99.90
7204;DHT22;3643;52.460;13.322;2023-02-26T03:15:35;-0.20;99.90
7204;DHT22;3643;52.460;13.322;2023-02-26T03:18:16;-0.30;99.90
7204;DHT22;3643;52.460;13.322;2023-02-26T03:20:54;-0.30;99.90
7204;DHT22;3643;52.460;13.322;2023-02-26T03:23:32;-0.30;99.90
7204;DHT22;3643;52.460;13.322;2023-02-26T03:26:08;-0.20;99.90
7204;DHT22;3643;52.460;13.322;2023-02-26T03:28:40;-0.30;99.90
7204;DHT22;3643;52.460;13.322;2023-02-26T03:31:15;-0.70;99.90
7204;DHT22;3643;52.460;13.322;2023-02-26T03:33:51;-0.30;99.90
7204;DHT22;3643;52.460;13.322;2023-02-26T03:36:24;-0.40;99.90
7204;DHT22;3643;52.460;13.322;2023-02-26T03:38:58;-0.30;99.90
7204;DHT22;3643;52.460;13.322;2023-02-26T03:41:33;-0.30;99.90
7204;DHT22;3643;52.460;13.322;2023-02-26T03:44:06;-0.30;99.90
7204;DHT22;3643;52.460;13.322;2023-02-26T03:46:40;-0.30;99.90
7204;DHT22;3643;52.460;13.322;2023-02-26T03:49:13;-0.30;99.90
7204;DHT22;3643;52.460;13.322;2023-02-26T03:51:43;-0.30;99.90
7204;DHT22;3643;52.460;13.322;2023-02-26T03:54:18;-0.30;99.90
7204;DHT22;3643;52.460;13.322;2023-02-26T03:56:48;-0.30;99.90
7204;DHT22;3643;52.460;13.322;2023-02-26T03:59:17;-0.30;99.90
7204;DHT22;3643;52.460;13.322;2023-02-26T04:01:50;-0.30;99.90
7204;DHT22;3643;52.460;13.322;2023-02-26T04:04:25;-0.30;99.90
7204;DHT22;3643;52.460;13.322;2023-02-26T04:06:56;-0.30;99.90
7204;DHT22;3643;52.460;13.322;2023-02-26T04:09:24;-0.20;99.90
7204;DHT22;3643;52.460;13.322;2023-02-26T04:11:52;-0.30;99.90
7204;DHT22;3643;52.460;13.322;2023-02-26T04:14:21;-0.30;99.90
7204;DHT22;3643;52.460;13.322;2023-02-26T04:16:50;-0.30;99.90
7204;DHT22;3643;52.460;13.322;2023-02-26T04:19:18;-0.20;99.90
7204;DHT22;3643;52.460;13.322;2023-02-26T04:21:48;-0.20;99.90
7204;DHT22;3643;52.460;13.322;2023-02-26T04:24:16;-0.10;99.90
7204;DHT22;3643;52.460;13.322;2023-02-26T04:26:44;-0.20;99.90
7204;DHT22;3643;52.460;13.322;2023-02-26T04:29:13;-0.20;99.90
7204;DHT22;3643;52.460;13.322;2023-02-26T04:31:41;-0.20;99.90
7204;DHT22;3643;52.460;13.322;2023-02-26T04:34:10;-0.20;99.90
7204;DHT22;3643;52.460;13.322;2023-02-26T04:36:38;-0.20;99.90
7204;DHT22;3643;52.460;13.322;2023-02-26T04:39:08;-0.20;99.90
7204;DHT22;3643;52.460;13.322;2023-02-26T04:41:37;-0.20;99.90
7204;DHT22;3643;52.460;13.322;2023-02-26T04:44:06;-0.20;99.90
7204;DHT22;3643;52.460;13.322;2023-02-26T04:46:34;-0.20;99.90
7204;DHT22;3643;52.460;13.322;2023-02-26T04:49:02;-0.20;99.90
7204;DHT22;3643;52.460;13.322;2023-02-26T04:51:31;-0.20;99.90
7204;DHT22;3643;52.460;13.322;2023-02-26T04:53:59;-0.10;99.90
7204;DHT22;3643;52.460;13.322;2023-02-26T04:56:29;-0.10;99.90
7204;DHT22;3643;52.460;13.322;2023-02-26T04:58:59;-0.10;99.90
7204;DHT22;3643;52.460;13.322;2023-02-26T05:01:27;-0.20;99.90
7204;DHT22;3643;52.460;13.322;2023-02-26T05:03:55;-0.20;99.90
7204;DHT22;3643;52.460;13.322;2023-02-26T05:06:24;-0.20;99.90
7204;DHT22;3643;52.460;13.322;2023-02-26T05:08:52;-0.10;99.90
7204;DHT22;3643;52.460;13.322;2023-02-26T05:11:20;-0.10;99.90
7204;DHT22;3643;52.460;13.322;2023-02-26T05:13:50;-0.20;99.90
7204;DHT22;3643;52.460;13.322;2023-02-26T05:16:18;-0.20;99.90
7204;DHT22;3643;52.460;13.322;2023-02-26T05:18:46;-0.10;99.90
7204;DHT22;3643;52.460;13.322;2023-02-26T05:21:14;-0.20;99.90
7204;DHT22;3643;52.460;13.322;2023-02-26T05:23:42;-0.10;99.90
7204;DHT22;3643;52.460;13.322;2023-02-26T05:26:10;-0.20;99.90
7204;DHT22;3643;52.460;13.322;2023-02-26T05:28:38;0.00;99.90
7204;DHT22;3643;52.460;13.322;2023-02-26T05:31:08;0.00;99.90
7204;DHT22;3643;52.460;13.322;2023-02-26T05:33:36;0.00;99.90
7204;DHT22;3643;52.460;13.322;2023-02-26T05:36:04;0.00;99.90
7204;DHT22;3643;52.460;13.322;2023-02-26T05:38:33;0.00;99.90
7204;DHT22;3643;52.460;13.322;2023-02-26T05:41:02;0.00;99.90
7204;DHT22;3643;52.460;13.322;2023-02-26T05:43:30;0.00;99.90
7204;DHT22;3643;52.460;13.322;2023-02-26T05:45:59;0.00;99.90
7204;DHT22;3643;52.460;13.322;2023-02-26T05:48:28;0.00;99.90
7204;DHT22;3643;52.460;13.322;2023-02-26T05:50:56;-0.10;99.90
7204;DHT22;3643;52.460;13.322;2023-02-26T05:53:24;0.00;99.90
7204;DHT22;3643;52.460;13.322;2023-02-26T05:55:53;0.00;99.90
7204;DHT22;3643;52.460;13.322;2023-02-26T05:58:21;0.00;99.90
7204;DHT22;3643;52.460;13.322;2023-02-26T06:00:49;0.00;99.90
7204;DHT22;3643;52.460;13.322;2023-02-26T06:03:17;0.00;99.90
7204;DHT22;3643;52.460;13.322;2023-02-26T06:05:47;0.00;99.90
7204;DHT22;3643;52.460;13.322;2023-02-26T06:08:15;0.00;99.90
7204;DHT22;3643;52.460;13.322;2023-02-26T06:10:43;0.00;99.90
7204;DHT22;3643;52.460;13.322;2023-02-26T06:13:11;0.10;99.90
7204;DHT22;3643;52.460;13.322;2023-02-26T06:15:39;0.10;99.90
7204;DHT22;3643;52.460;13.322;2023-02-26T06:18:07;0.10;99.90
7204;DHT22;3643;52.460;13.322;2023-02-26T06:20:35;0.10;99.90
7204;DHT22;3643;52.460;13.322;2023-02-26T06:23:05;0.10;99.90
7204;DHT22;3643;52.460;13.322;2023-02-26T06:25:33;0.10;99.90
7204;DHT22;3643;52.460;13.322;2023-02-26T06:28:01;0.10;99.90
7204;DHT22;3643;52.460;13.322;2023-02-26T06:30:29;0.10;99.90
7204;DHT22;3643;52.460;13.322;2023-02-26T06:32:57;0.10;99.90
7204;DHT22;3643;52.460;13.322;2023-02-26T06:35:25;0.10;99.90
7204;DHT22;3643;52.460;13.322;2023-02-26T06:37:55;0.10;99.90
7204;DHT22;3643;52.460;13.322;2023-02-26T06:40:25;0.20;99.90
7204;DHT22;3643;52.460;13.322;2023-02-26T06:42:53;0.20;99.90
7204;DHT22;3643;52.460;13.322;2023-02-26T06:45:21;0.20;99.90
7204;DHT22;3643;52.460;13.322;2023-02-26T06:47:50;0.30;99.90
7204;DHT22;3643;52.460;13.322;2023-02-26T06:50:19;0.30;99.90
7204;DHT22;3643;52.460;13.322;2023-02-26T06:52:47;0.30;99.90
7204;DHT22;3643;52.460;13.322;2023-02-26T06:55:15;0.40;99.90
7204;DHT22;3643;52.460;13.322;2023-02-26T06:57:44;0.50;99.90
7204;DHT22;3643;52.460;13.322;2023-02-26T07:00:13;0.60;99.90
7204;DHT22;3643;52.460;13.322;2023-02-26T07:02:41;0.60;99.90
7204;DHT22;3643;52.460;13.322;2023-02-26T07:05:09;0.60;99.90
7204;DHT22;3643;52.460;13.322;2023-02-26T07:07:38;0.70;99.90
7204;DHT22;3643;52.460;13.322;2023-02-26T07:10:06;1.00;99.90
7204;DHT22;3643;52.460;13.322;2023-02-26T07:12:35;2.00;99.90
7204;DHT22;3643;52.460;13.322;2023-02-26T07:15:06;2.80;99.90
7204;DHT22;3643;52.460;13.322;2023-02-26T07:17:34;3.40;99.90
7204;DHT22;3643;52.460;13.322;2023-02-26T07:20:03;3.30;99.90
7204;DHT22;3643;52.460;13.322;2023-02-26T07:22:36;2.80;99.90
7204;DHT22;3643;52.460;13.322;2023-02-26T07:25:05;2.30;99.90
7204;DHT22;3643;52.460;13.322;2023-02-26T07:27:33;2.00;99.90
7204;DHT22;3643;52.460;13.322;2023-02-26T07:30:02;1.50;99.90
7204;DHT22;3643;52.460;13.322;2023-02-26T07:32:32;1.30;99.90
7204;DHT22;3643;52.460;13.322;2023-02-26T07:35:01;0.70;99.90
7204;DHT22;3643;52.460;13.322;2023-02-26T07:37:30;0.60;99.90
7204;DHT22;3643;52.460;13.322;2023-02-26T07:39:58;0.70;99.90
7204;DHT22;3643;52.460;13.322;2023-02-26T07:42:26;0.80;99.90
7204;DHT22;3643;52.460;13.322;2023-02-26T07:44:54;0.90;99.90
7204;DHT22;3643;52.460;13.322;2023-02-26T07:47:22;0.90;99.90
7204;DHT22;3643;52.460;13.322;2023-02-26T07:49:51;1.00;99.90
7204;DHT22;3643;52.460;13.322;2023-02-26T07:52:20;0.90;99.90
7204;DHT22;3643;52.460;13.322;2023-02-26T07:54:48;0.60;99.90
7204;DHT22;3643;52.460;13.322;2023-02-26T07:57:16;0.70;99.90
7204;DHT22;3643;52.460;13.322;2023-02-26T07:59:44;0.50;99.90
7204;DHT22;3643;52.460;13.322;2023-02-26T08:02:12;0.40;99.90
7204;DHT22;3643;52.460;13.322;2023-02-26T08:04:41;0.40;99.90
7204;DHT22;3643;52.460;13.322;2023-02-26T08:07:10;0.50;99.90
7204;DHT22;3643;52.460;13.322;2023-02-26T08:09:38;0.60;99.90
7204;DHT22;3643;52.460;13.322;2023-02-26T08:12:06;0.60;99.90
7204;DHT22;3643;52.460;13.322;2023-02-26T08:14:35;0.70;99.90
7204;DHT22;3643;52.460;13.322;2023-02-26T08:17:03;0.60;99.90
7204;DHT22;3643;52.460;13.322;2023-02-26T08:19:31;0.60;99.90
7204;DHT22;3643;52.460;13.322;2023-02-26T08:21:59;0.60;99.90
7204;DHT22;3643;52.460;13.322;2023-02-26T08:24:28;0.70;99.90
7204;DHT22;3643;52.460;13.322;2023-02-26T08:26:56;0.50;99.90
7204;DHT22;3643;52.460;13.322;2023-02-26T08:29:25;0.50;99.90
7204;DHT22;3643;52.460;13.322;2023-02-26T08:31:53;0.50;99.90
7204;DHT22;3643;52.460;13.322;2023-02-26T08:34:21;0.50;99.90
7204;DHT22;3643;52.460;13.322;2023-02-26T08:36:49;0.70;99.90
7204;DHT22;3643;52.460;13.322;2023-02-26T08:39:17;0.50;99.90
7204;DHT22;3643;52.460;13.322;2023-02-26T08:41:47;0.50;99.90
7204;DHT22;3643;52.460;13.322;2023-02-26T08:44:15;0.60;99.90
7204;DHT22;3643;52.460;13.322;2023-02-26T08:46:43;0.70;99.90
7204;DHT22;3643;52.460;13.322;2023-02-26T08:49:11;0.80;99.90
7204;DHT22;3643;52.460;13.322;2023-02-26T08:51:39;1.00;99.90
7204;DHT22;3643;52.460;13.322;2023-02-26T08:54:07;1.00;99.90
7204;DHT22;3643;52.460;13.322;2023-02-26T08:56:35;1.00;99.90
7204;DHT22;3643;52.460;13.322;2023-02-26T08:59:05;1.00;99.90
7204;DHT22;3643;52.460;13.322;2023-02-26T09:01:35;1.10;99.90
7204;DHT22;3643;52.460;13.322;2023-02-26T09:04:04;0.90;99.90
7204;DHT22;3643;52.460;13.322;2023-02-26T09:06:32;0.90;99.90
7204;DHT22;3643;52.460;13.322;2023-02-26T09:09:00;0.90;99.90
7204;DHT22;3643;52.460;13.322;2023-02-26T09:11:28;0.90;99.90
7204;DHT22;3643;52.460;13.322;2023-02-26T09:13:58;0.90;99.90
7204;DHT22;3643;52.460;13.322;2023-02-26T09:16:29;0.90;99.90
7204;DHT22;3643;52.460;13.322;2023-02-26T09:19:01;0.80;99.90
7204;DHT22;3643;52.460;13.322;2023-02-26T09:21:29;0.80;99.90
7204;DHT22;3643;52.460;13.322;2023-02-26T09:23:57;1.00;99.90
7204;DHT22;3643;52.460;13.322;2023-02-26T09:26:25;0.80;99.90
7204;DHT22;3643;52.460;13.322;2023-02-26T09:28:54;1.00;99.90
7204;DHT22;3643;52.460;13.322;2023-02-26T09:31:22;1.00;99.90
7204;DHT22;3643;52.460;13.322;2023-02-26T09:33:51;1.00;99.90
7204;DHT22;3643;52.460;13.322;2023-02-26T09:36:19;1.00;99.90
7204;DHT22;3643;52.460;13.322;2023-02-26T09:38:47;1.00;99.90
7204;DHT22;3643;52.460;13.322;2023-02-26T09:41:20;1.10;99.90
7204;DHT22;3643;52.460;13.322;2023-02-26T09:44:04;1.20;99.90
7204;DHT22;3643;52.460;13.322;2023-02-26T09:46:40;1.20;99.90
7204;DHT22;3643;52.460;13.322;2023-02-26T09:49:19;1.10;99.90
7204;DHT22;3643;52.460;13.322;2023-02-26T09:51:52;1.20;99.90
7204;DHT22;3643;52.460;13.322;2023-02-26T09:54:23;1.20;99.90
7204;DHT22;3643;52.460;13.322;2023-02-26T09:56:53;2.40;99.90
7204;DHT22;3643;52.460;13.322;2023-02-26T09:59:23;1.30;99.90
7204;DHT22;3643;52.460;13.322;2023-02-26T10:01:57;1.40;99.90
7204;DHT22;3643;52.460;13.322;2023-02-26T10:04:43;1.30;99.90
7204;DHT22;3643;52.460;13.322;2023-02-26T10:07:20;1.20;99.90
7204;DHT22;3643;52.460;13.322;2023-02-26T10:10:10;1.20;99.90
7204;DHT22;3643;52.460;13.322;2023-02-26T10:12:42;1.40;99.90
7204;DHT22;3643;52.460;13.322;2023-02-26T10:15:13;1.40;99.90
7204;DHT22;3643;52.460;13.322;2023-02-26T10:17:52;1.50;99.90
7204;DHT22;3643;52.460;13.322;2023-02-26T10:20:26;1.70;99.90
7204;DHT22;3643;52.460;13.322;2023-02-26T10:23:00;1.50;99.90
7204;DHT22;3643;52.460;13.322;2023-02-26T10:25:34;1.50;99.90
7204;DHT22;3643;52.460;13.322;2023-02-26T10:28:15;1.60;99.90
7204;DHT22;3643;52.460;13.322;2023-02-26T10:30:51;1.70;99.90
7204;DHT22;3643;52.460;13.322;2023-02-26T10:33:29;1.90;99.90
7204;DHT22;3643;52.460;13.322;2023-02-26T10:36:06;2.10;99.90
7204;DHT22;3643;52.460;13.322;2023-02-26T10:38:36;2.40;99.90
7204;DHT22;3643;52.460;13.322;2023-02-26T10:41:08;2.50;99.90
7204;DHT22;3643;52.460;13.322;2023-02-26T10:43:39;2.60;99.90
7204;DHT22;3643;52.460;13.322;2023-02-26T10:46:20;2.80;99.90
7204;DHT22;3643;52.460;13.322;2023-02-26T10:48:59;2.80;99.90
7204;DHT22;3643;52.460;13.322;2023-02-26T10:51:34;2.70;99.90
7204;DHT22;3643;52.460;13.322;2023-02-26T10:56:49;2.80;99.90
7204;DHT22;3643;52.460;13.322;2023-02-26T10:59:17;2.80;99.90
7204;DHT22;3643;52.460;13.322;2023-02-26T11:01:46;2.90;99.90
7204;DHT22;3643;52.460;13.322;2023-02-26T11:04:17;3.00;99.90
7204;DHT22;3643;52.460;13.322;2023-02-26T11:06:49;3.00;99.90
7204;DHT22;3643;52.460;13.322;2023-02-26T11:09:21;2.90;99.90
7204;DHT22;3643;52.460;13.322;2023-02-26T11:11:53;3.00;99.90
7204;DHT22;3643;52.460;13.322;2023-02-26T11:14:21;3.10;99.90
7204;DHT22;3643;52.460;13.322;2023-02-26T11:16:55;3.30;99.90
7204;DHT22;3643;52.460;13.322;2023-02-26T11:19:27;3.30;99.90
7204;DHT22;3643;52.460;13.322;2023-02-26T11:21:59;3.30;99.90
7204;DHT22;3643;52.460;13.322;2023-02-26T11:24:32;3.20;99.90
7204;DHT22;3643;52.460;13.322;2023-02-26T11:27:03;3.20;99.90
7204;DHT22;3643;52.460;13.322;2023-02-26T11:29:35;3.20;99.90
7204;DHT22;3643;52.460;13.322;2023-02-26T11:32:06;3.20;99.90
7204;DHT22;3643;52.460;13.322;2023-02-26T11:34:34;3.30;99.90
7204;DHT22;3643;52.460;13.322;2023-02-26T11:37:05;3.40;99.90
7204;DHT22;3643;52.460;13.322;2023-02-26T11:39:35;3.60;99.90
7204;DHT22;3643;52.460;13.322;2023-02-26T11:42:09;3.70;99.90
7204;DHT22;3643;52.460;13.322;2023-02-26T11:44:39;3.80;99.90
7204;DHT22;3643;52.460;13.322;2023-02-26T11:47:13;3.90;99.90
7204;DHT22;3643;52.460;13.322;2023-02-26T11:49:44;3.80;99.90
7204;DHT22;3643;52.460;13.322;2023-02-26T11:52:20;3.70;99.90
7204;DHT22;3643;52.460;13.322;2023-02-26T11:54:53;3.60;99.90
7204;DHT22;3643;52.460;13.322;2023-02-26T11:57:24;3.40;99.90
7204;DHT22;3643;52.460;13.322;2023-02-26T11:59:54;3.50;99.90
7204;DHT22;3643;52.460;13.322;2023-02-26T12:02:23;3.30;99.90
7204;DHT22;3643;52.460;13.322;2023-02-26T12:04:57;3.20;99.90
7204;DHT22;3643;52.460;13.322;2023-02-26T12:07:29;3.20;99.90
7204;DHT22;3643;52.460;13.322;2023-02-26T12:09:57;3.20;99.90
7204;DHT22;3643;52.460;13.322;2023-02-26T12:12:44;3.40;99.90
7204;DHT22;3643;52.460;13.322;2023-02-26T12:15:25;3.40;99.90
7204;DHT22;3643;52.460;13.322;2023-02-26T12:21:02;3.60;99.90
7204;DHT22;3643;52.460;13.322;2023-02-26T12:23:56;3.60;99.90
7204;DHT22;3643;52.460;13.322;2023-02-26T12:26:31;3.50;99.90
7204;DHT22;3643;52.460;13.322;2023-02-26T12:32:26;3.30;99.90
7204;DHT22;3643;52.460;13.322;2023-02-26T12:38:20;3.80;99.90
7204;DHT22;3643;52.460;13.322;2023-02-26T12:41:04;3.10;99.90
7204;DHT22;3643;52.460;13.322;2023-02-26T12:43:40;3.40;99.70
7204;DHT22;3643;52.460;13.322;2023-02-26T12:46:22;3.60;99.50
7204;DHT22;3643;52.460;13.322;2023-02-26T12:49:15;3.90;99.90
7204;DHT22;3643;52.460;13.322;2023-02-26T12:52:00;3.90;98.70
7204;DHT22;3643;52.460;13.322;2023-02-26T12:54:45;3.70;99.40
7204;DHT22;3643;52.460;13.322;2023-02-26T13:00:38;3.60;99.90
7204;DHT22;3643;52.460;13.322;2023-02-26T13:06:33;3.20;99.90
7204;DHT22;3643;52.460;13.322;2023-02-26T13:09:16;3.40;99.90
7204;DHT22;3643;52.460;13.322;2023-02-26T13:11:59;3.30;99.90
7204;DHT22;3643;52.460;13.322;2023-02-26T13:14:39;3.40;99.60
7204;DHT22;3643;52.460;13.322;2023-02-26T13:17:18;3.40;99.90
7204;DHT22;3643;52.460;13.322;2023-02-26T13:19:52;3.50;98.60
7204;DHT22;3643;52.460;13.322;2023-02-26T13:22:25;3.70;97.60
7204;DHT22;3643;52.460;13.322;2023-02-26T13:24:57;3.80;97.80
7204;DHT22;3643;52.460;13.322;2023-02-26T13:27:30;4.10;98.30
7204;DHT22;3643;52.460;13.322;2023-02-26T13:30:18;3.80;98.20
7204;DHT22;3643;52.460;13.322;2023-02-26T13:32:49;3.70;99.50
7204;DHT22;3643;52.460;13.322;2023-02-26T13:35:21;3.40;98.20
7204;DHT22;3643;52.460;13.322;2023-02-26T13:37:54;3.40;98.70
7204;DHT22;3643;52.460;13.322;2023-02-26T13:40:42;3.30;99.00
7204;DHT22;3643;52.460;13.322;2023-02-26T13:43:23;3.20;99.70
7204;DHT22;3643;52.460;13.322;2023-02-26T13:46:01;3.10;97.70
7204;DHT22;3643;52.460;13.322;2023-02-26T13:48:39;3.00;97.00
7204;DHT22;3643;52.460;13.322;2023-02-26T13:51:13;3.00;97.70
7204;DHT22;3643;52.460;13.322;2023-02-26T13:53:51;3.00;97.00
7204;DHT22;3643;52.460;13.322;2023-02-26T13:56:51;3.10;97.10
7204;DHT22;3643;52.460;13.322;2023-02-26T13:59:29;3.30;97.40
7204;DHT22;3643;52.460;13.322;2023-02-26T14:02:29;3.60;96.90
7204;DHT22;3643;52.460;13.322;2023-02-26T14:04:52;3.70;97.10
7204;DHT22;3643;52.460;13.322;2023-02-26T14:07:46;3.80;97.40
7204;DHT22;3643;52.460;13.322;2023-02-26T14:10:16;3.80;96.80
7204;DHT22;3643;52.460;13.322;2023-02-26T14:13:02;3.80;96.50
7204;DHT22;3643;52.460;13.322;2023-02-26T14:15:47;3.70;96.40
7204;DHT22;3643;52.460;13.322;2023-02-26T14:18:29;3.70;95.80
7204;DHT22;3643;52.460;13.322;2023-02-26T14:24:18;3.70;95.60
7204;DHT22;3643;52.460;13.322;2023-02-26T14:26:49;3.60;96.10
7204;DHT22;3643;52.460;13.322;2023-02-26T14:29:24;3.60;95.90
7204;DHT22;3643;52.460;13.322;2023-02-26T14:32:02;3.50;96.10
7204;DHT22;3643;52.460;13.322;2023-02-26T14:34:45;3.50;95.80
7204;DHT22;3643;52.460;13.322;2023-02-26T14:37:18;3.50;95.40
7204;DHT22;3643;52.460;13.322;2023-02-26T14:39:50;3.50;95.00
7204;DHT22;3643;52.460;13.322;2023-02-26T14:42:29;3.60;95.60
7204;DHT22;3643;52.460;13.322;2023-02-26T14:45:08;3.50;95.90
7204;DHT22;3643;52.460;13.322;2023-02-26T14:47:37;3.50;96.50
7204;DHT22;3643;52.460;13.322;2023-02-26T14:50:10;3.60;95.30
7204;DHT22;3643;52.460;13.322;2023-02-26T14:53:11;3.70;96.00
7204;DHT22;3643;52.460;13.322;2023-02-26T14:55:53;3.80;96.20
7204;DHT22;3643;52.460;13.322;2023-02-26T14:58:32;3.70;95.90
7204;DHT22;3643;52.460;13.322;2023-02-26T15:01:10;3.70;96.00
7204;DHT22;3643;52.460;13.322;2023-02-26T15:04:02;3.70;95.60
7204;DHT22;3643;52.460;13.322;2023-02-26T15:06:51;3.60;95.80
7204;DHT22;3643;52.460;13.322;2023-02-26T15:09:28;3.40;96.30
7204;DHT22;3643;52.460;13.322;2023-02-26T15:12:14;3.30;96.30
7204;DHT22;3643;52.460;13.322;2023-02-26T15:18:08;3.10;97.30
7204;DHT22;3643;52.460;13.322;2023-02-26T15:20:49;2.90;97.90
7204;DHT22;3643;52.460;13.322;2023-02-26T15:23:32;2.90;97.00
7204;DHT22;3643;52.460;13.322;2023-02-26T15:26:04;2.80;97.40
7204;DHT22;3643;52.460;13.322;2023-02-26T15:28:35;2.70;97.30
7204;DHT22;3643;52.460;13.322;2023-02-26T15:31:05;2.70;97.00
7204;DHT22;3643;52.460;13.322;2023-02-26T15:33:35;2.60;97.40
7204;DHT22;3643;52.460;13.322;2023-02-26T15:36:07;2.60;97.40
7204;DHT22;3643;52.460;13.322;2023-02-26T15:38:44;2.60;97.10
7204;DHT22;3643;52.460;13.322;2023-02-26T15:41:13;2.60;97.30
7204;DHT22;3643;52.460;13.322;2023-02-26T15:43:47;2.70;97.00
7204;DHT22;3643;52.460;13.322;2023-02-26T15:46:17;2.70;97.20
7204;DHT22;3643;52.460;13.322;2023-02-26T15:48:46;2.70;96.80
7204;DHT22;3643;52.460;13.322;2023-02-26T15:51:17;2.80;97.10
7204;DHT22;3643;52.460;13.322;2023-02-26T15:53:49;2.80;96.50
7204;DHT22;3643;52.460;13.322;2023-02-26T15:56:22;2.80;96.20
7204;DHT22;3643;52.460;13.322;2023-02-26T15:58:54;2.80;96.90
7204;DHT22;3643;52.460;13.322;2023-02-26T16:01:26;2.90;96.10
7204;DHT22;3643;52.460;13.322;2023-02-26T16:03:57;3.00;95.60
7204;DHT22;3643;52.460;13.322;2023-02-26T16:06:29;3.00;96.30
7204;DHT22;3643;52.460;13.322;2023-02-26T16:09:00;2.90;96.90
7204;DHT22;3643;52.460;13.322;2023-02-26T16:11:32;2.80;97.20
7204;DHT22;3643;52.460;13.322;2023-02-26T16:14:02;2.70;97.70
7204;DHT22;3643;52.460;13.322;2023-02-26T16:16:40;2.50;97.80
7204;DHT22;3643;52.460;13.322;2023-02-26T16:19:12;2.40;98.10
7204;DHT22;3643;52.460;13.322;2023-02-26T16:21:42;2.30;98.20
7204;DHT22;3643;52.460;13.322;2023-02-26T16:24:15;2.30;98.60
7204;DHT22;3643;52.460;13.322;2023-02-26T16:26:49;2.30;98.40
7204;DHT22;3643;52.460;13.322;2023-02-26T16:29:22;2.20;98.90
7204;DHT22;3643;52.460;13.322;2023-02-26T16:31:53;2.20;98.90
7204;DHT22;3643;52.460;13.322;2023-02-26T16:34:29;2.20;98.70
7204;DHT22;3643;52.460;13.322;2023-02-26T16:37:12;2.20;98.70
7204;DHT22;3643;52.460;13.322;2023-02-26T16:39:51;2.10;99.10
7204;DHT22;3643;52.460;13.322;2023-02-26T16:42:22;2.10;98.60
7204;DHT22;3643;52.460;13.322;2023-02-26T16:45:14;2.10;99.90
7204;DHT22;3643;52.460;13.322;2023-02-26T16:47:45;2.20;99.20
7204;DHT22;3643;52.460;13.322;2023-02-26T16:50:16;2.20;99.10
7204;DHT22;3643;52.460;13.322;2023-02-26T16:52:47;2.20;99.40
7204;DHT22;3643;52.460;13.322;2023-02-26T16:55:24;2.30;99.20
7204;DHT22;3643;52.460;13.322;2023-02-26T16:57:54;2.20;99.30
7204;DHT22;3643;52.460;13.322;2023-02-26T17:00:24;2.10;99.40
7204;DHT22;3643;52.460;13.322;2023-02-26T17:03:05;2.00;99.90
7204;DHT22;3643;52.460;13.322;2023-02-26T17:05:38;1.80;99.90